Taiheimaru — JM6135 — position and weather

sailwx.info

Track history (hours):
 
Tides and Currents Weather Stations Pressure Air Temp Water Temp Dewpoint Dewpoint Depression Visibility Wind Speed Wind Dir Waves Ship Positions

Taiheimaru

Last reported at 2015-May-27 08:31 UTC. Time now 2015-May-28 13:58 UTC.
Position N 34°37' E 135°03'.

Length 78 m.

Type: Cargo ship. MMSI: 431400082.

Date/timePositionNaut miles runAvg speedWind from/ knotsBaromVisibWave heightAir tempDewpointWater temp
2015-May-27 08:31N 34°37' E 135°03'1110.2
2015-May-27 07:29N 34°39' E 135°15'2 2.0
2015-May-27 06:33N 34°41' E 135°17'0 0.2
2015-May-27 05:32N 34°41' E 135°17'8 7.0
2015-May-27 04:26N 34°38' E 135°25'0 0.1
2015-May-27 03:16N 34°37' E 135°25'5 7.0
2015-May-27 02:33N 34°40' E 135°20'3 2.5
2015-May-27 01:31N 34°41' E 135°17'1 1.6
2015-May-27 00:33N 34°40' E 135°15'2 1.6
2015-May-26 23:33N 34°38' E 135°15'0 0.0
2015-May-26 22:33N 34°38' E 135°15'0 0.3
2015-May-26 21:33N 34°38' E 135°15'11 9.9
2015-May-26 20:23N 34°37' E 135°01'4 0.1
2015-May-25 06:33N 34°36' E 135°05'1111.1
2015-May-25 05:32N 34°40' E 135°18'1 0.7
2015-May-25 04:32N 34°41' E 135°17'1 0.6
2015-May-25 03:33N 34°41' E 135°17'0 0.0
2015-May-25 02:33N 34°41' E 135°17'0 0.1
2015-May-25 01:30N 34°41' E 135°17'2 2.1
2015-May-25 00:24N 34°39' E 135°15'1 1.6
2015-May-24 23:33N 34°38' E 135°14'  
2015-May-22 06:18N 34°37' E 134°58'7 9.3
2015-May-22 05:33N 34°37' E 135°06'10 9.4
2015-May-22 04:32N 34°41' E 135°17'0 0.1
2015-May-22 03:31N 34°41' E 135°17'0 0.4
2015-May-22 02:28N 34°41' E 135°16'2 1.9
2015-May-22 01:29N 34°39' E 135°15'1 1.4
2015-May-22 00:33N 34°40' E 135°14'10 8.7
2015-May-21 23:27N 34°38' E 135°25'2 2.5
2015-May-21 22:32N 34°37' E 135°22'2 1.7
2015-May-21 21:30N 34°37' E 135°20'0 0.0
2015-May-21 20:30N 34°37' E 135°20'0 0.0
2015-May-21 19:30N 34°37' E 135°20'0 0.0
2015-May-21 18:30N 34°37' E 135°20'0 0.0
2015-May-21 17:28N 34°37' E 135°20'1 1.0
2015-May-21 16:33N 34°37' E 135°19'1111.5
2015-May-21 15:33N 34°35' E 135°05'  
2015-May-18 04:31N 34°38' E 134°57'8 8.1
2015-May-18 03:31N 34°36' E 135°07'7 7.6
2015-May-18 02:33N 34°39' E 135°15'1 0.8
2015-May-18 01:28N 34°40' E 135°14'0 0.0
2015-May-18 00:24N 34°40' E 135°14'2 2.0
2015-May-17 23:28N 34°41' E 135°13'0 0.0
2015-May-17 22:24N 34°41' E 135°13'0 0.0
2015-May-17 21:10N 34°41' E 135°13'0 0.0
2015-May-17 20:31N 34°41' E 135°13'0 0.0
2015-May-17 19:28N 34°41' E 135°13'0 0.0
2015-May-17 18:31N 34°41' E 135°13'0 0.0
2015-May-17 17:28N 34°41' E 135°13'0 0.0
2015-May-17 16:28N 34°41' E 135°13'0 0.0
2015-May-17 15:25N 34°41' E 135°13'0 0.0
2015-May-17 14:31N 34°41' E 135°13'0 0.0
2015-May-17 13:25N 34°41' E 135°13'0 0.0
2015-May-17 12:28N 34°41' E 135°13'0 0.0
2015-May-17 11:28N 34°41' E 135°13'0 0.0
2015-May-17 10:22N 34°41' E 135°13'0 0.0
2015-May-17 09:13N 34°41' E 135°13'  
Track history (hours):
 
Tides and Currents Weather Stations Pressure Air Temp Water Temp Dewpoint Dewpoint Depression Visibility Wind Speed Wind Dir Waves Ship Positions

Taiheimaru

Last reported at 2015-May-27 08:31 UTC. Time now 2015-May-28 13:58 UTC.
Position N 34°37' E 135°03'.

Length 78 m.

Type: Cargo ship. MMSI: 431400082.

Date/timePositionNaut miles runAvg speedWind from/ knotsBaromVisibWave heightAir tempDewpointWater temp
2015-May-27 08:31N 34°37' E 135°03'1110.2
2015-May-27 07:29N 34°39' E 135°15'2 2.0
2015-May-27 06:33N 34°41' E 135°17'0 0.2
2015-May-27 05:32N 34°41' E 135°17'8 7.0
2015-May-27 04:26N 34°38' E 135°25'0 0.1
2015-May-27 03:16N 34°37' E 135°25'5 7.0
2015-May-27 02:33N 34°40' E 135°20'3 2.5
2015-May-27 01:31N 34°41' E 135°17'1 1.6
2015-May-27 00:33N 34°40' E 135°15'2 1.6
2015-May-26 23:33N 34°38' E 135°15'0 0.0
2015-May-26 22:33N 34°38' E 135°15'0 0.3
2015-May-26 21:33N 34°38' E 135°15'11 9.9
2015-May-26 20:23N 34°37' E 135°01'4 0.1
2015-May-25 06:33N 34°36' E 135°05'1111.1
2015-May-25 05:32N 34°40' E 135°18'1 0.7
2015-May-25 04:32N 34°41' E 135°17'1 0.6
2015-May-25 03:33N 34°41' E 135°17'0 0.0
2015-May-25 02:33N 34°41' E 135°17'0 0.1
2015-May-25 01:30N 34°41' E 135°17'2 2.1
2015-May-25 00:24N 34°39' E 135°15'1 1.6
2015-May-24 23:33N 34°38' E 135°14'  
2015-May-22 06:18N 34°37' E 134°58'7 9.3
2015-May-22 05:33N 34°37' E 135°06'10 9.4
2015-May-22 04:32N 34°41' E 135°17'0 0.1
2015-May-22 03:31N 34°41' E 135°17'0 0.4
2015-May-22 02:28N 34°41' E 135°16'2 1.9
2015-May-22 01:29N 34°39' E 135°15'1 1.4
2015-May-22 00:33N 34°40' E 135°14'10 8.7
2015-May-21 23:27N 34°38' E 135°25'2 2.5
2015-May-21 22:32N 34°37' E 135°22'2 1.7
2015-May-21 21:30N 34°37' E 135°20'0 0.0
2015-May-21 20:30N 34°37' E 135°20'0 0.0
2015-May-21 19:30N 34°37' E 135°20'0 0.0
2015-May-21 18:30N 34°37' E 135°20'0 0.0
2015-May-21 17:28N 34°37' E 135°20'1 1.0
2015-May-21 16:33N 34°37' E 135°19'1111.5
2015-May-21 15:33N 34°35' E 135°05'  
2015-May-18 04:31N 34°38' E 134°57'8 8.1
2015-May-18 03:31N 34°36' E 135°07'7 7.6
2015-May-18 02:33N 34°39' E 135°15'1 0.8
2015-May-18 01:28N 34°40' E 135°14'0 0.0
2015-May-18 00:24N 34°40' E 135°14'2 2.0
2015-May-17 23:28N 34°41' E 135°13'0 0.0
2015-May-17 22:24N 34°41' E 135°13'0 0.0
2015-May-17 21:10N 34°41' E 135°13'0 0.0
2015-May-17 20:31N 34°41' E 135°13'0 0.0
2015-May-17 19:28N 34°41' E 135°13'0 0.0
2015-May-17 18:31N 34°41' E 135°13'0 0.0
2015-May-17 17:28N 34°41' E 135°13'0 0.0
2015-May-17 16:28N 34°41' E 135°13'0 0.0
2015-May-17 15:25N 34°41' E 135°13'0 0.0
2015-May-17 14:31N 34°41' E 135°13'0 0.0
2015-May-17 13:25N 34°41' E 135°13'0 0.0
2015-May-17 12:28N 34°41' E 135°13'0 0.0
2015-May-17 11:28N 34°41' E 135°13'0 0.0
2015-May-17 10:22N 34°41' E 135°13'0 0.0
2015-May-17 09:13N 34°41' E 135°13'  

Dump ship's entire track history